Time;durP1;ratioP1;P1;durP2;ratioP2;P2;SDS_P1;SDS_P2;PMS_P1;PMS_P2;Temp;Humidity;BMP_temperature;BMP_pressure;BME280_temperature;BME280_humidity;BME280_pressure;Samples;Min_cycle;Max_cycle;Signal;HPM_P1;HPM_P2
2021/10/14 00:01:03;;;;;;;1.87;1.00;;;9.60;99.90;;;;;;5091973;28;20250;-71
2021/10/14 00:03:28;;;;;;;2.70;1.23;;;9.60;99.90;;;;;;5090598;28;20543;-71
2021/10/14 00:05:54;;;;;;;2.37;1.50;;;9.60;99.90;;;;;;5092071;28;20459;-71
2021/10/14 00:08:19;;;;;;;1.90;1.37;;;9.60;99.90;;;;;;5091868;28;20166;-70
2021/10/14 00:10:45;;;;;;;2.43;1.60;;;9.60;99.90;;;;;;5091901;28;20173;-69
2021/10/14 00:13:13;;;;;;;1.87;1.33;;;9.60;99.90;;;;;;5091828;28;20185;-70
2021/10/14 00:15:40;;;;;;;3.23;1.63;;;9.60;99.90;;;;;;5091865;28;20235;-70
2021/10/14 00:18:06;;;;;;;1.80;1.70;;;9.70;99.90;;;;;;5091727;28;20411;-70
2021/10/14 00:20:31;;;;;;;1.50;1.40;;;9.70;99.90;;;;;;5091741;28;20465;-70
2021/10/14 00:22:57;;;;;;;2.37;1.33;;;9.60;99.90;;;;;;5091641;28;20172;-70
2021/10/14 00:25:23;;;;;;;1.43;1.33;;;9.60;99.90;;;;;;5091665;28;20169;-70
2021/10/14 00:27:49;;;;;;;1.03;1.00;;;9.60;99.90;;;;;;5091729;28;20193;-70
2021/10/14 00:30:15;;;;;;;1.70;1.60;;;9.60;99.90;;;;;;5091768;28;20177;-69
2021/10/14 00:32:40;;;;;;;1.60;1.47;;;9.60;99.90;;;;;;5091515;28;20411;-70
2021/10/14 00:35:06;;;;;;;1.73;1.43;;;9.60;99.90;;;;;;5091420;28;20170;-70
2021/10/14 00:37:32;;;;;;;1.93;1.70;;;9.60;99.90;;;;;;5091011;28;20189;-70
2021/10/14 00:39:57;;;;;;;2.30;1.57;;;9.50;99.90;;;;;;5091100;28;20520;-70
2021/10/14 00:42:23;;;;;;;1.57;1.30;;;9.60;99.90;;;;;;5091171;28;20177;-70
2021/10/14 00:47:42;;;;;;;1.50;1.20;;;9.60;99.90;;;;;;5090322;28;20217;-70
2021/10/14 00:50:09;;;;;;;2.03;1.73;;;9.60;99.90;;;;;;5091631;28;20466;-70
2021/10/14 00:52:37;;;;;;;1.73;1.43;;;9.60;99.90;;;;;;5090107;28;20258;-71
2021/10/14 00:55:06;;;;;;;2.10;1.80;;;9.60;99.90;;;;;;5091380;28;20412;-70
2021/10/14 00:57:38;;;;;;;1.90;1.20;;;9.60;99.90;;;;;;5095247;28;20427;-70
2021/10/14 01:00:05;;;;;;;2.87;1.27;;;9.60;99.90;;;;;;5093895;28;20406;-71
2021/10/14 01:02:31;;;;;;;1.33;1.23;;;9.60;99.90;;;;;;5094950;28;20411;-71
2021/10/14 01:04:57;;;;;;;1.63;1.53;;;9.60;99.90;;;;;;5094923;28;20472;-71
2021/10/14 01:07:23;;;;;;;1.67;1.57;;;9.60;99.90;;;;;;5095329;28;20235;-71
2021/10/14 01:09:48;;;;;;;2.03;1.70;;;9.60;99.90;;;;;;5095243;28;20536;-72
2021/10/14 01:12:17;;;;;;;1.67;1.30;;;9.50;99.90;;;;;;5094808;28;20468;-71
2021/10/14 01:14:43;;;;;;;1.20;1.10;;;9.50;99.90;;;;;;5094760;28;20632;-71
2021/10/14 01:17:08;;;;;;;1.30;1.10;;;9.50;99.90;;;;;;5092281;28;20521;-70
2021/10/14 01:19:36;;;;;;;2.30;1.60;;;9.50;99.90;;;;;;5094558;28;20195;-71
2021/10/14 01:22:02;;;;;;;2.53;1.53;;;9.50;99.90;;;;;;5092012;28;20778;-71
2021/10/14 01:24:28;;;;;;;1.70;1.60;;;9.50;99.90;;;;;;5093354;28;20503;-71
2021/10/14 01:26:53;;;;;;;2.20;1.80;;;9.50;99.90;;;;;;5094465;28;20933;-70
2021/10/14 01:29:19;;;;;;;1.97;1.77;;;9.60;99.90;;;;;;5094629;28;20323;-71
2021/10/14 01:31:48;;;;;;;2.23;1.70;;;9.60;99.90;;;;;;5087944;28;20205;-71
2021/10/14 01:34:15;;;;;;;2.63;1.67;;;9.60;99.90;;;;;;5074038;28;20396;-70
2021/10/14 01:36:41;;;;;;;1.90;1.80;;;9.60;99.90;;;;;;5074223;28;20432;-71
2021/10/14 01:39:06;;;;;;;3.10;2.10;;;9.60;99.90;;;;;;5074222;28;20760;-70
2021/10/14 01:41:32;;;;;;;1.90;1.80;;;9.60;99.90;;;;;;5073867;28;20220;-71
2021/10/14 01:43:57;;;;;;;1.60;1.30;;;9.60;99.90;;;;;;5073474;28;20210;-71
2021/10/14 01:46:23;;;;;;;1.57;1.47;;;9.50;99.90;;;;;;5073413;28;20266;-71
2021/10/14 01:48:49;;;;;;;1.60;1.50;;;9.50;99.90;;;;;;5074043;28;20215;-71
2021/10/14 01:51:14;;;;;;;1.50;1.33;;;9.50;99.90;;;;;;5074086;28;20170;-71
2021/10/14 01:53:40;;;;;;;2.63;1.90;;;9.50;99.90;;;;;;5073893;28;20412;-71
2021/10/14 01:56:06;;;;;;;1.97;1.70;;;9.60;99.90;;;;;;5073630;28;20655;-71
2021/10/14 01:58:31;;;;;;;2.60;2.00;;;9.60;99.90;;;;;;5079192;28;20170;-71
2021/10/14 02:00:57;;;;;;;1.93;1.83;;;9.60;99.90;;;;;;5093700;28;20463;-71
2021/10/14 02:03:22;;;;;;;2.83;1.80;;;9.60;99.90;;;;;;5094035;28;20165;-71
2021/10/14 02:05:48;;;;;;;3.27;2.90;;;9.60;99.90;;;;;;5093867;28;20177;-70
2021/10/14 02:08:14;;;;;;;2.53;2.33;;;9.60;99.90;;;;;;5093385;28;20222;-69
2021/10/14 02:10:40;;;;;;;1.67;1.27;;;9.70;99.90;;;;;;5093663;28;20170;-69
2021/10/14 02:13:06;;;;;;;1.50;1.40;;;9.60;99.90;;;;;;5093708;28;20537;-69
2021/10/14 02:15:32;;;;;;;2.07;1.73;;;9.70;99.90;;;;;;5093534;28;20403;-69
2021/10/14 02:17:57;;;;;;;1.90;1.80;;;9.70;99.90;;;;;;5093480;28;20419;-69
2021/10/14 02:20:23;;;;;;;1.57;1.27;;;9.70;99.90;;;;;;5093365;28;20506;-69
2021/10/14 02:22:49;;;;;;;2.47;2.27;;;9.70;99.90;;;;;;5093362;28;20160;-69
2021/10/14 02:25:16;;;;;;;4.07;2.57;;;9.70;99.90;;;;;;5093215;28;20200;-69
2021/10/14 02:27:42;;;;;;;2.97;2.17;;;9.70;99.90;;;;;;5093097;28;20535;-70
2021/10/14 02:30:10;;;;;;;1.90;1.80;;;9.70;99.90;;;;;;5093108;28;20485;-70
2021/10/14 02:32:36;;;;;;;2.80;2.33;;;9.70;99.90;;;;;;5093093;28;20264;-69
2021/10/14 02:35:03;;;;;;;2.40;1.97;;;9.70;99.90;;;;;;5092803;28;20404;-70
2021/10/14 02:37:28;;;;;;;3.10;2.50;;;9.70;99.90;;;;;;5092777;28;20463;-69
2021/10/14 02:39:55;;;;;;;2.50;2.20;;;9.60;99.90;;;;;;5092786;28;20508;-70
2021/10/14 02:42:20;;;;;;;2.77;2.50;;;9.60;99.90;;;;;;5092966;28;20552;-71
2021/10/14 02:44:46;;;;;;;2.87;2.40;;;9.60;99.90;;;;;;5090345;28;20418;-70
2021/10/14 02:47:12;;;;;;;2.70;1.93;;;9.60;99.90;;;;;;5092569;28;20723;-71
2021/10/14 02:49:37;;;;;;;1.97;1.77;;;9.60;99.90;;;;;;5092716;28;20446;-69
2021/10/14 02:52:04;;;;;;;3.50;2.50;;;9.60;99.90;;;;;;5092571;28;20279;-70
2021/10/14 02:54:29;;;;;;;7.10;2.83;;;9.70;99.90;;;;;;5092398;28;20162;-71
2021/10/14 02:56:55;;;;;;;2.43;2.23;;;9.70;99.90;;;;;;5092519;28;20430;-70
2021/10/14 02:59:20;;;;;;;3.33;1.97;;;9.60;99.90;;;;;;5092569;28;20188;-70
2021/10/14 03:01:46;;;;;;;3.73;1.93;;;9.60;99.90;;;;;;5092438;28;20206;-69
2021/10/14 03:04:11;;;;;;;2.57;2.10;;;9.60;99.90;;;;;;5092672;28;20179;-71
2021/10/14 03:06:37;;;;;;;5.53;2.60;;;9.60;99.90;;;;;;5092759;28;20181;-70
2021/10/14 03:09:03;;;;;;;3.83;1.47;;;9.60;99.90;;;;;;5092526;28;20168;-70
2021/10/14 03:11:29;;;;;;;2.83;1.80;;;9.60;99.90;;;;;;5092507;28;20219;-70
2021/10/14 03:13:54;;;;;;;5.00;1.70;;;9.60;99.90;;;;;;5087850;28;20415;-70
2021/10/14 03:16:20;;;;;;;2.07;1.60;;;9.60;99.90;;;;;;5090976;28;20200;-70
2021/10/14 03:18:45;;;;;;;2.20;1.50;;;9.50;99.90;;;;;;5091628;28;20214;-70
2021/10/14 03:21:11;;;;;;;1.30;1.20;;;9.60;99.90;;;;;;5091714;28;20192;-71
2021/10/14 03:23:37;;;;;;;1.80;1.10;;;9.60;99.90;;;;;;5092103;28;20505;-70
2021/10/14 03:26:04;;;;;;;1.10;1.00;;;9.50;99.90;;;;;;5092018;28;20606;-70
2021/10/14 03:28:29;;;;;;;2.30;1.10;;;9.50;99.90;;;;;;5091994;28;20160;-70
2021/10/14 03:30:55;;;;;;;1.67;1.57;;;9.50;99.90;;;;;;5091941;28;20779;-71
2021/10/14 03:33:21;;;;;;;2.00;1.30;;;9.50;99.90;;;;;;5091824;28;20252;-70
2021/10/14 03:35:46;;;;;;;2.73;1.27;;;9.50;99.90;;;;;;5091863;28;20177;-71
2021/10/14 03:38:12;;;;;;;1.97;1.07;;;9.40;99.90;;;;;;5091839;28;20188;-70
2021/10/14 03:40:37;;;;;;;2.50;0.90;;;9.40;99.90;;;;;;5091700;28;20276;-70
2021/10/14 03:43:03;;;;;;;1.30;1.13;;;9.40;99.90;;;;;;5091710;28;20546;-70
2021/10/14 03:45:28;;;;;;;1.70;1.23;;;9.40;99.90;;;;;;5091621;28;20193;-70
2021/10/14 03:47:54;;;;;;;2.73;1.23;;;9.40;99.90;;;;;;5091520;28;20192;-71
2021/10/14 03:50:19;;;;;;;1.90;1.37;;;9.40;99.90;;;;;;5091640;28;20181;-70
2021/10/14 03:52:45;;;;;;;1.77;1.30;;;9.40;99.90;;;;;;5091505;28;20540;-71
2021/10/14 03:55:10;;;;;;;1.40;1.30;;;9.40;99.90;;;;;;5091454;28;20178;-68
2021/10/14 03:57:36;;;;;;;1.73;1.53;;;9.40;99.90;;;;;;5091503;28;20185;-71
2021/10/14 04:00:02;;;;;;;1.33;1.23;;;9.30;99.90;;;;;;5091353;28;20166;-68
2021/10/14 04:02:28;;;;;;;1.30;1.10;;;9.40;99.90;;;;;;5091318;28;20612;-71
2021/10/14 04:04:53;;;;;;;2.97;1.60;;;9.40;99.90;;;;;;5091296;28;20490;-69
2021/10/14 04:07:19;;;;;;;1.10;1.00;;;9.40;99.90;;;;;;5091226;28;20571;-69
2021/10/14 04:09:44;;;;;;;3.07;1.53;;;9.30;99.90;;;;;;5091385;28;20256;-69
2021/10/14 04:12:10;;;;;;;1.80;1.70;;;9.40;99.90;;;;;;5091334;28;20212;-70
2021/10/14 04:14:35;;;;;;;1.60;1.27;;;9.40;99.90;;;;;;5091233;28;20197;-69
2021/10/14 04:17:00;;;;;;;2.33;2.13;;;9.40;99.90;;;;;;5091353;28;20245;-69
2021/10/14 04:19:26;;;;;;;3.20;1.60;;;9.40;99.90;;;;;;5091278;28;20196;-69
2021/10/14 04:21:51;;;;;;;1.20;1.10;;;9.40;99.90;;;;;;5091095;28;20512;-70
2021/10/14 04:24:18;;;;;;;2.20;1.50;;;9.40;99.90;;;;;;5091420;28;20158;-70
2021/10/14 04:26:44;;;;;;;2.40;1.40;;;9.30;99.90;;;;;;5091056;28;20181;-70
2021/10/14 04:29:10;;;;;;;2.00;1.40;;;9.30;99.90;;;;;;5091395;28;20430;-70
2021/10/14 04:31:35;;;;;;;1.10;1.00;;;9.40;99.90;;;;;;5095395;28;20177;-70
2021/10/14 04:34:02;;;;;;;1.57;1.47;;;9.40;99.90;;;;;;5095180;28;20203;-71
2021/10/14 04:36:27;;;;;;;1.60;1.50;;;9.40;99.90;;;;;;5095268;28;20187;-70
2021/10/14 04:38:53;;;;;;;1.40;1.27;;;9.40;99.90;;;;;;5095171;28;21125;-70
2021/10/14 04:41:19;;;;;;;1.70;1.57;;;9.40;99.90;;;;;;5094920;28;20205;-70
2021/10/14 04:43:45;;;;;;;1.13;1.03;;;9.30;99.90;;;;;;5095204;28;20176;-69
2021/10/14 04:46:11;;;;;;;1.50;1.40;;;9.40;99.90;;;;;;5095437;28;20428;-70
2021/10/14 04:48:36;;;;;;;1.30;1.20;;;9.30;99.90;;;;;;5093486;28;20465;-70
2021/10/14 04:51:02;;;;;;;1.50;1.40;;;9.30;99.90;;;;;;5093207;28;20176;-70
2021/10/14 04:53:28;;;;;;;1.57;1.30;;;9.40;99.90;;;;;;5094133;28;20651;-70
2021/10/14 04:55:53;;;;;;;3.10;2.07;;;9.30;99.90;;;;;;5094538;28;20203;-70
2021/10/14 04:58:19;;;;;;;1.20;1.10;;;9.30;99.90;;;;;;5095126;28;20250;-70
2021/10/14 05:00:44;;;;;;;1.20;1.10;;;9.30;99.90;;;;;;5094958;28;20231;-70
2021/10/14 05:03:10;;;;;;;1.70;1.30;;;9.30;99.90;;;;;;5094973;28;20513;-69
2021/10/14 05:05:35;;;;;;;2.10;1.60;;;9.30;99.90;;;;;;5094914;28;20177;-70
2021/10/14 05:08:00;;;;;;;1.47;1.37;;;9.40;99.90;;;;;;5093458;28;20196;-70
2021/10/14 05:10:26;;;;;;;1.90;1.50;;;9.40;99.90;;;;;;5095138;28;20216;-70
2021/10/14 05:12:51;;;;;;;1.70;1.60;;;9.40;99.90;;;;;;5094938;28;20637;-70
2021/10/14 05:15:17;;;;;;;1.73;1.50;;;9.40;99.90;;;;;;5094976;28;20628;-70
2021/10/14 05:17:42;;;;;;;3.20;1.87;;;9.40;99.90;;;;;;5095027;28;20597;-70
2021/10/14 05:20:08;;;;;;;1.93;1.50;;;9.40;99.90;;;;;;5094629;28;20701;-70
2021/10/14 05:25:25;;;;;;;1.57;1.40;;;9.40;99.90;;;;;;5093727;28;20405;-72
2021/10/14 05:27:51;;;;;;;1.60;1.47;;;9.50;99.90;;;;;;5094275;28;20960;-70
2021/10/14 05:30:20;;;;;;;2.23;1.63;;;9.50;99.90;;;;;;5094430;28;20398;-69
2021/10/14 05:32:46;;;;;;;1.47;1.37;;;9.50;99.90;;;;;;5094317;28;20173;-70
2021/10/14 05:35:12;;;;;;;2.90;1.40;;;9.50;99.90;;;;;;5094313;28;20878;-70
2021/10/14 05:37:38;;;;;;;2.13;1.20;;;9.50;99.90;;;;;;5094305;28;20231;-70
2021/10/14 05:40:05;;;;;;;1.60;1.20;;;9.50;99.90;;;;;;5094402;28;20403;-71
2021/10/14 05:42:30;;;;;;;2.10;1.60;;;9.50;99.90;;;;;;5093431;28;20416;-70
2021/10/14 05:44:56;;;;;;;2.33;1.50;;;9.50;99.90;;;;;;5094537;28;20406;-70
2021/10/14 05:47:21;;;;;;;1.33;1.23;;;9.50;99.90;;;;;;5094354;28;20822;-71
2021/10/14 05:49:47;;;;;;;1.80;1.60;;;9.50;99.90;;;;;;5094290;28;20174;-71
2021/10/14 05:52:13;;;;;;;1.93;1.40;;;9.50;99.90;;;;;;5094284;28;20173;-70
2021/10/14 05:54:39;;;;;;;1.50;1.20;;;9.50;99.90;;;;;;5094299;28;20177;-70
2021/10/14 05:57:04;;;;;;;1.20;1.10;;;9.50;99.90;;;;;;5094375;28;20427;-71
2021/10/14 05:59:30;;;;;;;1.90;1.50;;;9.50;99.90;;;;;;5094211;28;20177;-71
2021/10/14 06:01:55;;;;;;;1.60;1.50;;;9.60;99.90;;;;;;5093914;28;20706;-70
2021/10/14 06:04:21;;;;;;;2.07;1.30;;;9.60;99.90;;;;;;5093822;28;20184;-71
2021/10/14 06:06:46;;;;;;;1.47;1.37;;;9.70;99.90;;;;;;5093711;28;20213;-70
2021/10/14 06:09:12;;;;;;;1.70;1.27;;;9.60;99.90;;;;;;5093699;28;20248;-70
2021/10/14 06:11:37;;;;;;;2.60;1.40;;;9.70;99.90;;;;;;5093762;28;20636;-70
2021/10/14 06:14:02;;;;;;;1.37;1.13;;;9.70;99.90;;;;;;5093630;28;20176;-71
2021/10/14 06:16:28;;;;;;;1.73;1.27;;;9.70;99.90;;;;;;5093524;28;20241;-70
2021/10/14 06:18:53;;;;;;;2.47;1.50;;;9.70;99.90;;;;;;5093418;28;20616;-70
2021/10/14 06:21:19;;;;;;;1.87;1.40;;;9.70;99.90;;;;;;5093511;28;20245;-70
2021/10/14 06:23:45;;;;;;;2.33;1.53;;;9.70;99.90;;;;;;5093320;28;20176;-70
2021/10/14 06:26:11;;;;;;;2.37;2.07;;;9.80;99.90;;;;;;5093929;28;20205;-70
2021/10/14 06:28:36;;;;;;;2.43;1.97;;;9.80;99.90;;;;;;5093568;28;20231;-70
2021/10/14 06:31:02;;;;;;;2.80;1.80;;;9.80;99.90;;;;;;5092932;28;20400;-70
2021/10/14 06:33:27;;;;;;;4.03;2.50;;;9.80;99.90;;;;;;5091220;28;20162;-70
2021/10/14 06:35:53;;;;;;;3.27;2.97;;;9.80;99.90;;;;;;5091397;28;20688;-70
2021/10/14 06:38:19;;;;;;;3.30;2.80;;;9.90;99.90;;;;;;5092278;28;20202;-70
2021/10/14 06:40:44;;;;;;;4.00;2.40;;;9.80;99.90;;;;;;5092852;28;20220;-70
2021/10/14 06:43:10;;;;;;;2.07;1.87;;;9.90;99.90;;;;;;5092843;28;20432;-70
2021/10/14 06:45:36;;;;;;;1.87;1.67;;;9.90;99.90;;;;;;5092745;28;20166;-72
2021/10/14 06:48:02;;;;;;;2.00;1.40;;;10.00;99.90;;;;;;5093242;28;20679;-71
2021/10/14 06:50:27;;;;;;;2.10;1.90;;;10.00;99.90;;;;;;5093701;28;20407;-74
2021/10/14 06:52:53;;;;;;;2.30;2.10;;;10.00;99.90;;;;;;5092349;28;20439;-73
2021/10/14 06:55:18;;;;;;;3.00;2.70;;;10.00;99.90;;;;;;5093255;28;20170;-72
2021/10/14 06:57:43;;;;;;;2.90;2.60;;;10.00;99.90;;;;;;5093405;28;20564;-70
2021/10/14 07:00:09;;;;;;;6.20;2.90;;;10.10;99.90;;;;;;5088982;28;20558;-70
2021/10/14 07:02:35;;;;;;;4.17;2.80;;;10.20;99.90;;;;;;5097896;28;20230;-70
2021/10/14 07:05:02;;;;;;;6.20;3.27;;;10.20;99.90;;;;;;5092473;28;20473;-70
2021/10/14 07:07:27;;;;;;;5.73;3.47;;;10.30;99.90;;;;;;5092807;28;20235;-71
2021/10/14 07:09:53;;;;;;;7.00;4.07;;;10.30;99.90;;;;;;5084517;28;20855;-70
2021/10/14 07:12:21;;;;;;;6.60;3.90;;;10.30;99.90;;;;;;5090459;28;20177;-70
2021/10/14 07:14:46;;;;;;;4.60;3.00;;;10.20;99.90;;;;;;5088305;28;20231;-70
2021/10/14 07:17:12;;;;;;;4.10;2.90;;;10.20;99.90;;;;;;5098969;28;20438;-70
2021/10/14 07:19:37;;;;;;;3.60;2.50;;;10.30;99.90;;;;;;5094575;28;20200;-70
2021/10/14 07:22:04;;;;;;;3.93;2.90;;;10.20;99.90;;;;;;5091928;28;20233;-70
2021/10/14 07:24:30;;;;;;;2.60;2.40;;;10.30;99.90;;;;;;5092365;28;20655;-70
2021/10/14 07:26:57;;;;;;;2.90;2.70;;;10.40;99.90;;;;;;5088062;28;20428;-70
2021/10/14 07:29:23;;;;;;;2.93;2.73;;;10.40;99.90;;;;;;5090833;28;20189;-70
2021/10/14 07:31:48;;;;;;;3.03;2.40;;;10.50;99.90;;;;;;5091021;28;20450;-70
2021/10/14 07:34:14;;;;;;;2.90;2.27;;;10.40;99.90;;;;;;5098502;28;20422;-70
2021/10/14 07:36:40;;;;;;;4.07;2.53;;;10.40;99.90;;;;;;5093762;28;20334;-70
2021/10/14 07:39:05;;;;;;;5.10;1.90;;;10.40;99.90;;;;;;5092333;28;20165;-70
2021/10/14 07:41:31;;;;;;;2.77;2.57;;;10.40;99.90;;;;;;5092102;28;20569;-70
2021/10/14 07:43:56;;;;;;;3.37;2.63;;;10.60;99.90;;;;;;5092137;28;20659;-70
2021/10/14 07:46:22;;;;;;;3.33;2.50;;;10.60;99.90;;;;;;5092028;28;20189;-69
2021/10/14 07:48:47;;;;;;;5.20;3.20;;;10.80;99.90;;;;;;5092122;28;20215;-70
2021/10/14 07:51:14;;;;;;;3.10;2.33;;;10.90;99.90;;;;;;5090662;28;20178;-69
2021/10/14 07:53:39;;;;;;;4.93;3.43;;;11.00;99.90;;;;;;5082468;28;20190;-70
2021/10/14 07:56:05;;;;;;;4.27;3.23;;;11.00;99.90;;;;;;5078734;28;20432;-70
2021/10/14 07:58:31;;;;;;;5.50;3.00;;;11.00;99.90;;;;;;5091935;28;20411;-70
2021/10/14 08:00:56;;;;;;;3.33;2.53;;;11.00;99.90;;;;;;5079510;28;20252;-70
2021/10/14 08:03:22;;;;;;;3.27;2.83;;;10.90;99.90;;;;;;5083982;28;20578;-70
2021/10/14 08:05:48;;;;;;;3.20;2.70;;;10.80;99.90;;;;;;5091522;28;20249;-70
2021/10/14 08:08:13;;;;;;;5.30;2.97;;;10.80;99.90;;;;;;5091015;28;20607;-70
2021/10/14 08:10:39;;;;;;;6.00;2.73;;;10.90;99.90;;;;;;5088471;28;20181;-70
2021/10/14 08:13:04;;;;;;;5.53;3.77;;;10.80;99.90;;;;;;5091866;28;20182;-70
2021/10/14 08:15:30;;;;;;;4.60;3.70;;;10.80;99.90;;;;;;5091702;28;20539;-71
2021/10/14 08:17:55;;;;;;;6.23;4.97;;;10.80;99.90;;;;;;5091869;28;20200;-70
2021/10/14 08:20:21;;;;;;;6.70;5.43;;;10.80;99.90;;;;;;5091550;28;20204;-70
2021/10/14 08:22:49;;;;;;;9.70;6.27;;;10.70;99.90;;;;;;5091623;28;20166;-70
2021/10/14 08:25:15;;;;;;;8.77;5.30;;;10.70;99.90;;;;;;5091575;28;20445;-70
2021/10/14 08:27:42;;;;;;;7.77;6.63;;;10.90;99.90;;;;;;5075325;28;20511;-69
2021/10/14 08:30:09;;;;;;;8.77;6.77;;;11.00;99.90;;;;;;5071343;28;20908;-70
2021/10/14 08:32:34;;;;;;;8.50;6.43;;;11.10;99.90;;;;;;5071197;28;20416;-70
2021/10/14 08:35:00;;;;;;;8.60;6.37;;;11.00;99.90;;;;;;5071461;28;20773;-70
2021/10/14 08:37:26;;;;;;;6.73;4.73;;;11.00;99.90;;;;;;5083382;28;20193;-70
2021/10/14 08:39:52;;;;;;;4.70;3.67;;;11.00;99.90;;;;;;5091660;28;20477;-71
2021/10/14 08:42:19;;;;;;;5.40;3.57;;;11.10;99.90;;;;;;5090136;28;20288;-73
2021/10/14 08:44:45;;;;;;;4.30;3.50;;;11.10;99.90;;;;;;5074777;28;20498;-70
2021/10/14 08:47:15;;;;;;;5.47;3.50;;;11.20;99.90;;;;;;5071328;28;20428;-69
2021/10/14 08:49:48;;;;;;;3.33;2.50;;;11.10;99.90;;;;;;5071271;28;20181;-70
2021/10/14 08:52:15;;;;;;;3.23;2.70;;;11.10;99.90;;;;;;5071766;28;20430;-69
2021/10/14 08:54:41;;;;;;;3.70;3.40;;;11.30;99.90;;;;;;5071050;28;20779;-69
2021/10/14 08:57:07;;;;;;;5.50;4.37;;;11.30;99.90;;;;;;5071249;28;20424;-70
2021/10/14 08:59:34;;;;;;;3.40;3.10;;;11.30;99.90;;;;;;5074270;28;20415;-70
2021/10/14 09:02:08;;;;;;;4.60;2.90;;;11.30;99.90;;;;;;5072597;28;20464;-70
2021/10/14 09:04:59;;;;;;;2.80;2.50;;;11.20;99.90;;;;;;5082841;28;20506;-69
2021/10/14 09:07:27;;;;;;;3.10;2.33;;;11.20;99.90;;;;;;5091035;28;20438;-70
2021/10/14 09:09:56;;;;;;;4.30;2.90;;;11.30;99.90;;;;;;5091319;28;20767;-68
2021/10/14 09:12:23;;;;;;;4.50;2.50;;;11.40;99.90;;;;;;5091105;28;20415;-68
2021/10/14 09:14:57;;;;;;;4.40;3.20;;;11.60;99.90;;;;;;5091139;28;20427;-69
2021/10/14 09:17:37;;;;;;;2.97;2.50;;;11.60;99.90;;;;;;5092140;28;20430;-70
2021/10/14 09:20:37;;;;;;;3.43;3.00;;;11.50;99.90;;;;;;5094476;28;20924;-70
2021/10/14 09:23:21;;;;;;;2.47;2.17;;;11.50;99.90;;;;;;5095013;28;20399;-70
2021/10/14 09:25:49;;;;;;;3.60;3.20;;;11.60;99.90;;;;;;5094915;28;20399;-70
2021/10/14 09:28:18;;;;;;;3.87;2.80;;;11.70;99.90;;;;;;5094753;28;20383;-68
2021/10/14 09:31:03;;;;;;;4.87;2.63;;;11.70;99.90;;;;;;5094526;28;20921;-70
2021/10/14 09:33:44;;;;;;;4.93;4.33;;;11.70;99.90;;;;;;5094164;28;20404;-68
2021/10/14 09:36:20;;;;;;;3.00;2.73;;;11.70;99.90;;;;;;5094255;28;20415;-70
2021/10/14 09:39:03;;;;;;;3.43;2.80;;;11.80;99.90;;;;;;5075384;28;20825;-70
2021/10/14 09:41:31;;;;;;;3.50;3.17;;;11.70;99.90;;;;;;5077413;28;20664;-70
2021/10/14 09:44:05;;;;;;;4.80;2.70;;;11.80;99.90;;;;;;5094354;28;20498;-70
2021/10/14 09:46:47;;;;;;;3.13;2.33;;;11.90;99.90;;;;;;5094481;28;20428;-69
2021/10/14 09:49:21;;;;;;;2.37;1.97;;;12.00;99.90;;;;;;5094411;28;20460;-71
2021/10/14 09:51:47;;;;;;;3.43;2.03;;;11.90;99.90;;;;;;5085566;28;20412;-71
2021/10/14 09:54:12;;;;;;;3.90;1.90;;;12.00;99.90;;;;;;5074176;28;20412;-70
2021/10/14 09:56:39;;;;;;;2.80;2.50;;;12.00;99.90;;;;;;5073939;28;20462;-70
2021/10/14 09:59:05;;;;;;;1.93;1.63;;;11.90;99.90;;;;;;5074091;28;20531;-69
2021/10/14 10:01:37;;;;;;;2.80;2.33;;;11.90;99.90;;;;;;5092573;28;20538;-70
2021/10/14 10:04:04;;;;;;;3.90;2.47;;;12.10;99.90;;;;;;5093937;28;20408;-71
2021/10/14 10:06:32;;;;;;;3.30;1.80;;;12.10;99.90;;;;;;5093880;28;20439;-70
2021/10/14 10:09:08;;;;;;;3.60;2.17;;;12.30;99.90;;;;;;5084343;28;20412;-70
2021/10/14 10:11:40;;;;;;;2.00;1.90;;;12.20;99.90;;;;;;5073687;28;20958;-70
2021/10/14 10:14:06;;;;;;;3.40;2.60;;;12.20;99.90;;;;;;5073510;28;20412;-71
2021/10/14 10:16:31;;;;;;;3.03;2.00;;;12.30;99.90;;;;;;5073544;28;20432;-71
2021/10/14 10:18:59;;;;;;;2.10;1.90;;;12.20;99.90;;;;;;5073470;28;20804;-70
2021/10/14 10:21:31;;;;;;;2.17;1.97;;;12.20;99.90;;;;;;5072032;28;20194;-71
2021/10/14 10:24:06;;;;;;;2.90;2.07;;;12.40;99.90;;;;;;5073486;28;20435;-70
2021/10/14 10:26:35;;;;;;;2.30;1.50;;;12.50;99.90;;;;;;5073745;28;20963;-70
2021/10/14 10:29:00;;;;;;;2.50;2.30;;;12.40;99.90;;;;;;5073396;28;20435;-70
2021/10/14 10:31:46;;;;;;;3.80;2.13;;;12.60;99.90;;;;;;5073326;28;20907;-70
2021/10/14 10:34:41;;;;;;;2.57;1.47;;;12.50;99.90;;;;;;5073183;28;20173;-71
2021/10/14 10:37:19;;;;;;;2.13;1.90;;;12.70;99.90;;;;;;5072967;28;20474;-69
2021/10/14 10:39:46;;;;;;;1.40;1.30;;;12.80;99.90;;;;;;5073352;28;20777;-70
2021/10/14 10:42:33;;;;;;;2.10;1.27;;;12.80;99.90;;;;;;5078189;28;20444;-70
2021/10/14 10:45:36;;;;;;;2.20;1.70;;;12.70;99.90;;;;;;5073025;28;20396;-69
2021/10/14 10:48:03;;;;;;;2.30;1.53;;;12.40;99.90;;;;;;5072794;28;20793;-69
2021/10/14 10:50:28;;;;;;;1.70;1.27;;;12.50;99.90;;;;;;5073030;28;20427;-69
2021/10/14 10:53:04;;;;;;;1.90;1.40;;;12.50;99.90;;;;;;5072676;28;20754;-69
2021/10/14 10:55:40;;;;;;;1.13;1.03;;;12.50;99.90;;;;;;5072688;28;20174;-69
2021/10/14 10:58:08;;;;;;;1.73;1.20;;;12.60;99.90;;;;;;5073009;28;20455;-69
2021/10/14 11:00:35;;;;;;;2.70;1.90;;;12.60;99.90;;;;;;5084330;28;20865;-69
2021/10/14 11:03:09;;;;;;;1.40;1.30;;;12.70;99.90;;;;;;5092460;28;20396;-69
2021/10/14 11:05:50;;;;;;;1.20;1.00;;;12.70;99.90;;;;;;5085217;28;20399;-70
2021/10/14 11:08:19;;;;;;;0.83;0.77;;;12.80;99.90;;;;;;5093594;28;20460;-69
2021/10/14 11:10:46;;;;;;;1.97;1.00;;;12.90;99.90;;;;;;5092733;28;20411;-70
2021/10/14 11:13:12;;;;;;;2.33;1.10;;;12.70;99.90;;;;;;5092809;28;20756;-70
2021/10/14 11:15:38;;;;;;;1.47;0.80;;;12.80;99.90;;;;;;5092735;28;20990;-70
2021/10/14 11:18:05;;;;;;;1.47;1.30;;;12.70;99.90;;;;;;5072800;28;20515;-70
2021/10/14 11:20:32;;;;;;;1.60;1.10;;;12.60;99.90;;;;;;5072215;28;20178;-70
2021/10/14 11:23:08;;;;;;;2.70;1.00;;;12.70;99.90;;;;;;5072117;28;20400;-70
2021/10/14 11:25:35;;;;;;;1.43;1.30;;;12.90;99.90;;;;;;5072348;28;20462;-69
2021/10/14 11:28:06;;;;;;;1.10;1.00;;;12.90;99.90;;;;;;5091055;28;20913;-73
2021/10/14 11:30:36;;;;;;;1.00;0.90;;;12.80;99.90;;;;;;5092615;28;20480;-69
2021/10/14 11:33:09;;;;;;;1.33;1.23;;;12.80;99.90;;;;;;5092551;28;20404;-69
2021/10/14 11:35:35;;;;;;;1.10;1.00;;;12.70;99.90;;;;;;5086142;28;20443;-69
2021/10/14 11:38:11;;;;;;;1.50;1.13;;;12.80;99.90;;;;;;5075067;28;20802;-69
2021/10/14 11:40:39;;;;;;;1.27;1.17;;;12.70;99.90;;;;;;5075302;28;20246;-69
2021/10/14 11:43:04;;;;;;;1.40;1.30;;;12.80;99.90;;;;;;5092119;28;20410;-70
2021/10/14 11:45:30;;;;;;;1.60;1.50;;;12.70;99.90;;;;;;5091975;28;20396;-69
2021/10/14 11:47:55;;;;;;;1.43;1.33;;;12.80;99.90;;;;;;5091927;28;20189;-69
2021/10/14 11:50:27;;;;;;;1.80;1.40;;;12.80;99.90;;;;;;5086996;28;20170;-71
2021/10/14 11:53:02;;;;;;;2.00;1.47;;;12.80;99.90;;;;;;5071694;28;20196;-71
2021/10/14 11:55:27;;;;;;;1.57;1.47;;;12.80;99.90;;;;;;5091292;28;20920;-70
2021/10/14 11:57:57;;;;;;;4.77;1.90;;;12.90;99.90;;;;;;5078242;28;20444;-70
2021/10/14 12:00:24;;;;;;;2.90;2.00;;;12.80;99.90;;;;;;5082142;28;20159;-71
2021/10/14 12:02:50;;;;;;;1.50;1.40;;;12.80;99.90;;;;;;5080151;28;20449;-69
2021/10/14 12:05:15;;;;;;;2.00;1.70;;;12.60;99.90;;;;;;5091978;28;20445;-70
2021/10/14 12:07:43;;;;;;;3.90;2.67;;;12.60;99.90;;;;;;5076580;28;20442;-70
2021/10/14 12:10:33;;;;;;;2.67;1.90;;;12.50;99.90;;;;;;5103610;28;20173;-70
2021/10/14 12:13:06;;;;;;;2.27;1.50;;;12.60;99.90;;;;;;5091745;28;20408;-70
2021/10/14 12:15:33;;;;;;;2.53;1.93;;;12.40;99.90;;;;;;5091932;28;20483;-70
2021/10/14 12:17:58;;;;;;;2.53;2.33;;;12.50;99.90;;;;;;5091551;28;20473;-70
2021/10/14 12:20:26;;;;;;;2.50;2.23;;;12.50;99.90;;;;;;5091964;28;20488;-71
2021/10/14 12:22:54;;;;;;;3.17;2.73;;;12.60;99.90;;;;;;5091554;28;20354;-71
2021/10/14 12:25:37;;;;;;;4.07;2.77;;;12.70;99.90;;;;;;5083643;28;20973;-71
2021/10/14 12:28:04;;;;;;;2.97;2.67;;;12.60;99.90;;;;;;5086052;28;20585;-71
2021/10/14 12:30:33;;;;;;;3.20;2.10;;;12.70;99.90;;;;;;5073822;28;20854;-70
2021/10/14 12:33:11;;;;;;;3.43;2.57;;;12.50;99.90;;;;;;5091492;28;20726;-70
2021/10/14 12:35:38;;;;;;;4.53;3.13;;;12.50;99.90;;;;;;5091864;28;20399;-71
2021/10/14 12:38:11;;;;;;;4.10;3.40;;;12.70;99.90;;;;;;5091431;28;20811;-70
2021/10/14 12:40:48;;;;;;;4.40;2.67;;;12.80;99.90;;;;;;5091980;28;20458;-71
2021/10/14 12:43:30;;;;;;;6.70;3.60;;;13.00;99.90;;;;;;5085040;28;20419;-70
2021/10/14 12:46:17;;;;;;;4.93;3.57;;;13.10;99.90;;;;;;5091291;28;20403;-71
2021/10/14 12:51:28;;;;;;;4.67;2.97;;;13.30;99.90;;;;;;5091247;28;20415;-71
2021/10/14 12:54:02;;;;;;;3.37;2.60;;;13.30;99.90;;;;;;5096101;28;20425;-71
2021/10/14 12:56:40;;;;;;;4.00;2.97;;;13.50;99.90;;;;;;5098749;28;20513;-70
2021/10/14 12:59:08;;;;;;;2.60;2.20;;;13.60;99.90;;;;;;5087223;28;20480;-71
2021/10/14 13:01:35;;;;;;;3.27;2.93;;;13.70;99.90;;;;;;5097976;28;20537;-71
2021/10/14 13:04:01;;;;;;;2.83;2.40;;;13.70;99.90;;;;;;5098369;28;20408;-71